createdAt,value
2019-05-01T07:07:28.983Z,57.23
2019-05-01T07:10:00.422Z,61.07
2019-05-01T07:12:32.994Z,61.40
2019-05-01T07:15:05.094Z,64.17
2019-05-01T07:17:36.646Z,55.40
2019-05-01T07:20:36.827Z,48.15
2019-05-01T07:23:08.121Z,53.52
2019-05-01T07:25:40.640Z,53.30
2019-05-01T07:28:11.977Z,48.87
2019-05-01T07:30:50.021Z,51.80
2019-05-01T07:33:22.267Z,47.70
2019-05-01T07:35:54.121Z,54.65
2019-05-01T07:38:25.479Z,51.35
2019-05-01T07:40:58.753Z,46.08
2019-05-01T07:43:59.680Z,50.20
2019-05-01T07:46:38.847Z,55.03
2019-05-01T07:49:13.142Z,57.10
2019-05-01T07:51:50.818Z,45.48
2019-05-01T07:54:22.532Z,50.75
2019-05-01T07:56:53.679Z,45.90
2019-05-01T07:59:27.553Z,45.25
2019-05-01T08:02:05.485Z,46.92
2019-05-01T08:04:36.962Z,44.80
2019-05-01T08:07:08.353Z,42.23
2019-05-01T08:09:39.546Z,41.95
2019-05-01T08:12:10.734Z,43.13
2019-05-01T08:14:41.921Z,43.08
2019-05-01T08:17:18.074Z,40.40
2019-05-01T08:19:52.385Z,39.83
2019-05-01T08:22:26.121Z,39.18
2019-05-01T08:24:58.837Z,44.23
2019-05-01T08:27:39.013Z,46.58
2019-05-01T08:30:28.735Z,45.63
2019-05-01T08:33:33.585Z,41.20
2019-05-01T08:36:06.807Z,37.10
2019-05-01T08:38:38.469Z,40.40
2019-05-01T08:41:09.630Z,37.73
2019-05-01T08:43:41.031Z,40.28
2019-05-01T08:46:29.583Z,42.80
2019-05-01T08:49:18.476Z,39.18
2019-05-01T08:51:49.719Z,41.45
2019-05-01T08:54:20.979Z,38.53
2019-05-01T08:56:57.976Z,41.70
2019-05-01T08:59:26.071Z,39.75
2019-05-01T09:02:09.057Z,42.27
2019-05-01T09:04:32.210Z,40.98
2019-05-01T09:07:03.098Z,42.80
2019-05-01T09:09:34.276Z,46.10
2019-05-01T09:12:06.933Z,37.73
2019-05-01T09:14:38.562Z,39.55
2019-05-01T09:17:09.708Z,37.50
2019-05-01T09:19:40.877Z,36.30
2019-05-01T09:22:12.057Z,36.38
2019-05-01T09:24:43.291Z,34.43
2019-05-01T09:27:32.362Z,36.70
2019-05-01T09:30:12.323Z,33.10
2019-05-01T09:32:45.866Z,38.02
2019-05-01T09:35:19.441Z,37.28
2019-05-01T09:37:49.590Z,36.23
2019-05-01T09:40:21.800Z,35.28
2019-05-01T09:42:54.712Z,36.98
2019-05-01T09:45:26.079Z,40.00
2019-05-01T09:47:57.258Z,36.30
2019-05-01T09:50:30.510Z,40.73
2019-05-01T09:53:19.330Z,32.93
2019-05-01T09:55:53.923Z,36.00
2019-05-01T09:58:25.100Z,35.03
2019-05-01T10:00:58.413Z,37.53
2019-05-01T10:03:29.595Z,35.38
2019-05-01T10:06:00.808Z,30.35
2019-05-01T10:08:34.954Z,32.58
2019-05-01T10:11:06.880Z,37.05
2019-05-01T10:13:38.349Z,35.88
2019-05-01T10:16:09.582Z,36.80
2019-05-01T10:18:40.902Z,40.70
2019-05-01T10:21:12.161Z,38.75
2019-05-01T10:23:47.139Z,41.88
2019-05-01T10:26:23.891Z,45.80
2019-05-01T10:29:13.663Z,41.20
2019-05-01T10:32:08.503Z,45.33
2019-05-01T10:34:47.585Z,41.83
2019-05-01T10:37:18.893Z,40.35
2019-05-01T10:39:53.974Z,45.48
2019-05-01T10:42:22.977Z,40.33
2019-05-01T10:44:54.215Z,44.25
2019-05-01T10:47:25.433Z,44.00
2019-05-01T10:49:56.602Z,44.73
2019-05-01T10:52:28.012Z,40.60
2019-05-01T10:54:59.251Z,40.83
2019-05-01T10:57:35.247Z,42.70
2019-05-01T11:00:03.414Z,41.42
2019-05-01T11:02:35.802Z,37.17
2019-05-01T11:05:07.057Z,42.30
2019-05-01T11:07:39.268Z,45.50
2019-05-01T11:10:10.990Z,33.45
2019-05-01T11:12:42.254Z,37.85
2019-05-01T11:15:13.835Z,41.48
2019-05-01T11:17:45.262Z,37.63
2019-05-01T11:20:16.509Z,30.60
2019-05-01T11:22:47.781Z,37.40
2019-05-01T11:25:20.548Z,34.30
2019-05-01T11:27:51.921Z,33.40
2019-05-01T11:30:23.176Z,33.50
2019-05-01T11:33:05.574Z,35.20
2019-05-01T11:36:02.954Z,28.70
2019-05-01T11:38:56.438Z,28.07
2019-05-01T11:41:31.940Z,31.40
2019-05-01T11:44:05.098Z,32.08
2019-05-01T11:46:36.224Z,28.52
2019-05-01T11:49:07.801Z,29.67
2019-05-01T11:51:39.020Z,29.90
2019-05-01T11:54:10.204Z,31.45
2019-05-01T11:56:41.477Z,28.52
2019-05-01T11:59:13.829Z,27.45
2019-05-01T12:01:45.171Z,30.55
2019-05-01T12:04:16.453Z,28.65
2019-05-01T12:06:47.668Z,29.92
2019-05-01T12:09:19.383Z,28.02
2019-05-01T12:11:52.378Z,25.55
2019-05-01T12:14:24.639Z,23.67
2019-05-01T12:17:11.397Z,23.80
2019-05-01T12:19:42.793Z,25.80
2019-05-01T12:22:13.950Z,28.75
2019-05-01T12:24:45.368Z,18.37
2019-05-01T12:27:16.544Z,18.95
2019-05-01T12:29:47.801Z,18.20
2019-05-01T12:32:19.020Z,20.27
2019-05-01T12:34:50.255Z,19.30
2019-05-01T12:37:40.411Z,14.90
2019-05-01T12:40:13.742Z,15.90
2019-05-01T12:42:45.013Z,15.08
2019-05-01T12:45:18.857Z,14.73
2019-05-01T12:47:51.881Z,16.30
2019-05-01T12:50:23.107Z,18.62
2019-05-01T12:53:11.841Z,14.73
2019-05-01T12:56:04.862Z,18.32
2019-05-01T12:58:37.330Z,14.50
2019-05-01T13:01:08.530Z,11.40
2019-05-01T13:03:39.684Z,14.58
2019-05-01T13:06:10.881Z,11.97
2019-05-01T13:08:42.041Z,16.35
2019-05-01T13:11:13.337Z,20.32
2019-05-01T13:13:44.473Z,11.75
2019-05-01T13:16:15.650Z,11.70
2019-05-01T13:18:46.998Z,11.80
2019-05-01T13:21:18.151Z,11.03
2019-05-01T13:23:49.420Z,12.80
2019-05-01T13:26:29.867Z,11.95
2019-05-01T13:29:18.496Z,10.72
2019-05-01T13:31:53.897Z,11.57
2019-05-01T13:34:25.229Z,14.03
2019-05-01T13:37:03.218Z,10.28
2019-05-01T13:39:29.377Z,10.18
2019-05-01T13:42:00.607Z,11.18
2019-05-01T13:44:31.793Z,10.95
2019-05-01T13:47:03.112Z,11.95
2019-05-01T13:49:34.256Z,9.08
2019-05-01T13:52:05.408Z,11.05
2019-05-01T13:54:36.666Z,9.70
2019-05-01T13:57:08.250Z,10.80
2019-05-01T13:59:39.805Z,12.40
2019-05-01T14:02:11.022Z,10.60
2019-05-01T14:04:43.316Z,10.00
2019-05-01T14:07:16.577Z,12.70
2019-05-01T14:09:47.460Z,10.85
2019-05-01T14:12:18.688Z,12.63
2019-05-01T14:14:49.888Z,14.10
2019-05-01T14:17:21.194Z,14.33
2019-05-01T14:20:00.395Z,12.43
2019-05-01T14:22:49.069Z,11.35
2019-05-01T14:25:20.253Z,13.68
2019-05-01T14:27:52.435Z,14.50
2019-05-01T14:30:23.720Z,12.98
2019-05-01T14:32:55.004Z,12.45
2019-05-01T14:35:26.265Z,12.10
2019-05-01T14:37:57.515Z,12.50
2019-05-01T14:40:28.849Z,13.05
2019-05-01T14:43:00.103Z,11.43
2019-05-01T14:45:31.583Z,11.68
2019-05-01T14:48:02.812Z,11.12
2019-05-01T14:50:34.112Z,15.03
2019-05-01T14:53:05.427Z,11.95
2019-05-01T14:55:36.588Z,12.78
2019-05-01T14:58:08.067Z,11.70
2019-05-01T15:00:39.276Z,12.28
2019-05-01T15:03:10.536Z,14.65
2019-05-01T15:05:41.947Z,11.15
2019-05-01T15:08:13.092Z,12.58
2019-05-01T15:10:44.248Z,11.80
2019-05-01T15:13:28.622Z,14.33
2019-05-01T15:16:04.949Z,11.20
2019-05-01T15:18:59.056Z,13.45
2019-05-01T15:21:30.874Z,11.10
2019-05-01T15:24:02.076Z,11.95
2019-05-01T15:26:33.314Z,12.50
2019-05-01T15:29:04.464Z,11.48
2019-05-01T15:31:35.697Z,10.85
2019-05-01T15:34:06.974Z,11.75
2019-05-01T15:36:38.203Z,12.55
2019-05-01T15:39:14.306Z,16.32
2019-05-01T15:42:07.165Z,11.80
2019-05-01T15:44:38.587Z,13.88
2019-05-01T15:47:09.772Z,13.85
2019-05-01T15:49:40.975Z,11.65
2019-05-01T15:52:12.163Z,12.30
2019-05-01T15:54:43.456Z,12.55
2019-05-01T15:57:14.661Z,14.83
2019-05-01T15:59:45.855Z,15.63
2019-05-01T16:02:18.100Z,13.88
2019-05-01T16:04:49.269Z,11.95
2019-05-01T16:07:20.544Z,13.80
2019-05-01T16:09:51.730Z,12.50
2019-05-01T16:12:48.103Z,13.48
2019-05-01T16:15:31.010Z,13.58
2019-05-01T16:18:02.256Z,14.83
2019-05-01T16:20:33.445Z,13.58
2019-05-01T16:23:04.720Z,12.18
2019-05-01T16:25:35.938Z,16.37
2019-05-01T16:28:07.067Z,17.02
2019-05-01T16:30:38.321Z,12.53
2019-05-01T16:33:09.432Z,12.40
2019-05-01T16:35:40.661Z,13.78
2019-05-01T16:38:23.172Z,15.70
2019-05-01T16:41:01.970Z,13.95
2019-05-01T16:43:33.275Z,15.90
2019-05-01T16:46:04.771Z,13.83
2019-05-01T16:48:35.984Z,15.65
2019-05-01T16:51:07.385Z,15.93
2019-05-01T16:53:38.622Z,16.67
2019-05-01T16:56:09.833Z,17.10
2019-05-01T16:58:41.242Z,17.20
2019-05-01T17:01:19.350Z,17.52
2019-05-01T17:04:07.607Z,17.30
2019-05-01T17:07:03.570Z,17.87
2019-05-01T17:09:53.665Z,18.02
2019-05-01T17:12:29.106Z,17.42
2019-05-01T17:15:00.251Z,17.60
2019-05-01T17:17:32.171Z,18.77
2019-05-01T17:20:03.407Z,20.25
2019-05-01T17:22:34.592Z,16.40
2019-05-01T17:25:05.990Z,16.30
2019-05-01T17:27:37.303Z,22.17
2019-05-01T17:30:14.122Z,16.57
2019-05-01T17:32:45.491Z,17.98
2019-05-01T17:35:16.973Z,33.50
2019-05-01T17:37:48.182Z,35.78
2019-05-01T17:40:19.399Z,19.35
2019-05-01T17:42:50.738Z,18.23
2019-05-01T17:45:22.094Z,15.58
2019-05-01T17:47:57.892Z,16.42
2019-05-01T17:50:26.482Z,16.10
2019-05-01T17:52:57.692Z,17.92
2019-05-01T17:55:28.967Z,18.82
2019-05-01T17:58:00.298Z,17.42
2019-05-01T18:00:56.530Z,17.70
2019-05-01T18:03:49.400Z,18.15
2019-05-01T18:06:33.515Z,17.05
2019-05-01T18:09:08.156Z,17.85
2019-05-01T18:11:40.319Z,25.10
2019-05-01T18:14:11.592Z,20.32
2019-05-01T18:16:43.922Z,19.77
2019-05-01T18:19:15.664Z,19.50
2019-05-01T18:21:52.146Z,20.32
2019-05-01T18:24:49.372Z,17.75
2019-05-01T18:27:38.558Z,19.12
2019-05-01T18:30:15.922Z,21.30
2019-05-01T18:32:47.503Z,18.25
2019-05-01T18:35:18.375Z,20.25
2019-05-01T18:37:58.509Z,20.75
2019-05-01T18:40:39.167Z,21.93
2019-05-01T18:43:10.403Z,19.82
2019-05-01T18:45:55.364Z,23.00
2019-05-01T18:48:26.499Z,20.15
2019-05-01T18:50:58.119Z,22.55
2019-05-01T18:53:30.423Z,20.02
2019-05-01T18:56:05.619Z,18.87
2019-05-01T18:58:34.609Z,20.43
2019-05-01T19:01:09.352Z,20.27
2019-05-01T19:03:42.290Z,21.55
2019-05-01T19:06:12.229Z,22.13
2019-05-01T19:08:43.813Z,23.83
2019-05-01T19:11:15.408Z,21.42
2019-05-01T19:13:46.982Z,23.22
2019-05-01T19:16:18.219Z,22.37
2019-05-01T19:18:49.599Z,23.92
2019-05-01T19:21:23.850Z,64.75
2019-05-01T19:24:00.446Z,34.25
2019-05-01T19:26:28.401Z,25.05
2019-05-01T19:28:59.795Z,26.00
2019-05-01T19:31:30.983Z,21.52
2019-05-01T19:34:02.807Z,25.12
2019-05-01T19:36:34.953Z,22.65
2019-05-01T19:39:11.632Z,25.85
2019-05-01T19:41:43.631Z,22.37
2019-05-01T19:44:18.953Z,23.67
2019-05-01T19:46:48.603Z,22.98
2019-05-01T19:49:24.512Z,25.90
2019-05-01T19:52:00.572Z,24.47
2019-05-01T19:54:30.047Z,26.30
2019-05-01T19:57:01.744Z,27.85
2019-05-01T19:59:33.478Z,26.70
2019-05-01T20:02:06.614Z,24.85
2019-05-01T20:04:38.033Z,25.80
2019-05-01T20:07:10.672Z,31.37
2019-05-01T20:09:56.191Z,26.70
2019-05-01T20:12:16.426Z,25.85
2019-05-01T20:14:48.049Z,28.47
2019-05-01T20:17:19.949Z,31.12
2019-05-01T20:19:53.200Z,28.40
2019-05-01T20:22:25.423Z,33.65
2019-05-01T20:24:56.736Z,28.60
2019-05-01T20:27:28.032Z,26.10
2019-05-01T20:29:59.315Z,28.87
2019-05-01T20:32:30.477Z,28.45
2019-05-01T20:35:02.130Z,28.27
2019-05-01T20:37:33.457Z,29.63
2019-05-01T20:40:11.169Z,29.32
2019-05-01T20:42:37.976Z,28.35
2019-05-01T20:45:17.328Z,30.37
2019-05-01T20:47:46.012Z,28.25
2019-05-01T20:50:15.313Z,28.05
2019-05-01T20:52:46.485Z,29.23
2019-05-01T20:55:17.679Z,30.65
2019-05-01T20:57:49.450Z,29.85
2019-05-01T21:00:23.043Z,31.50
2019-05-01T21:02:54.289Z,29.82
2019-05-01T21:05:36.774Z,30.92
2019-05-01T21:08:28.994Z,30.92
2019-05-01T21:11:06.042Z,31.68
2019-05-01T21:13:37.452Z,34.70
2019-05-01T21:16:08.731Z,33.45
2019-05-01T21:18:39.976Z,32.25
2019-05-01T21:21:11.251Z,32.58
2019-05-01T21:23:43.430Z,30.25
2019-05-01T21:26:14.847Z,29.67
2019-05-01T21:28:46.209Z,33.35
2019-05-01T21:31:17.381Z,33.08
2019-05-01T21:33:50.568Z,28.95
2019-05-01T21:36:21.556Z,31.80
2019-05-01T21:38:52.830Z,35.23
2019-05-01T21:41:23.968Z,33.33
2019-05-01T21:43:55.272Z,32.15
2019-05-01T21:46:26.583Z,35.78
2019-05-01T21:48:57.758Z,34.88
2019-05-01T21:51:29.036Z,35.85
2019-05-01T21:54:00.248Z,31.77
2019-05-01T21:56:31.647Z,35.30
2019-05-01T21:59:06.718Z,31.20
2019-05-01T22:01:36.441Z,30.02
2019-05-01T22:04:08.835Z,33.55
2019-05-01T22:06:40.045Z,31.20
2019-05-01T22:09:16.603Z,36.90
2019-05-01T22:11:47.899Z,33.23
2019-05-01T22:14:36.167Z,34.58
2019-05-01T22:17:11.808Z,31.65
2019-05-01T22:19:43.067Z,33.50
2019-05-01T22:22:25.154Z,30.88
2019-05-01T22:25:07.234Z,35.50
2019-05-01T22:27:42.293Z,33.28
2019-05-01T22:30:42.281Z,36.33
2019-05-01T22:33:11.602Z,34.05
2019-05-01T22:35:45.736Z,37.73
2019-05-01T22:38:16.972Z,31.68
2019-05-01T22:41:05.481Z,33.50
2019-05-01T22:43:25.994Z,32.75
2019-05-01T22:46:01.692Z,33.95
2019-05-01T22:48:30.054Z,30.75
2019-05-01T22:51:07.913Z,34.58
2019-05-01T22:53:39.169Z,33.00
2019-05-01T22:56:10.453Z,34.40
2019-05-01T22:58:41.713Z,34.50
2019-05-01T23:01:18.244Z,35.90
2019-05-01T23:03:52.651Z,33.50
2019-05-01T23:06:23.873Z,33.33
2019-05-01T23:08:55.043Z,34.98
2019-05-01T23:11:27.893Z,35.33
2019-05-01T23:13:59.442Z,32.55
2019-05-01T23:16:34.845Z,34.05
2019-05-01T23:19:06.017Z,30.68
2019-05-01T23:21:37.299Z,34.90
2019-05-01T23:24:10.006Z,38.25
2019-05-01T23:26:41.258Z,37.65
2019-05-01T23:29:12.614Z,32.98
2019-05-01T23:31:43.780Z,33.15
2019-05-01T23:34:16.013Z,33.92
2019-05-01T23:36:47.253Z,37.25
2019-05-01T23:39:18.472Z,33.35
2019-05-01T23:41:49.663Z,36.77
2019-05-01T23:44:20.987Z,35.43
2019-05-01T23:46:52.194Z,34.08
2019-05-01T23:49:23.404Z,34.33
2019-05-01T23:51:58.726Z,34.23
2019-05-01T23:54:27.537Z,37.78
2019-05-01T23:56:59.806Z,34.40
2019-05-01T23:59:31.010Z,39.50
